sensor_id;sensor_type;location;lat;lon;timestamp;pressure;altitude;pressure_sealevel;temperature;humidity
48204;BME280;33994;50.998;5.864;2023-12-20T00:00:54;101120.53;;;6.95;100.00
48204;BME280;33994;50.998;5.864;2023-12-20T00:03:57;101121.41;;;6.94;100.00
48204;BME280;33994;50.998;5.864;2023-12-20T00:07:02;101128.34;;;6.94;100.00
48204;BME280;33994;50.998;5.864;2023-12-20T00:10:06;101146.53;;;6.92;100.00
48204;BME280;33994;50.998;5.864;2023-12-20T00:13:09;101152.63;;;6.94;100.00
48204;BME280;33994;50.998;5.864;2023-12-20T00:16:13;101153.44;;;6.93;100.00
48204;BME280;33994;50.998;5.864;2023-12-20T00:19:16;101163.84;;;6.92;100.00
48204;BME280;33994;50.998;5.864;2023-12-20T00:22:20;101169.00;;;6.86;100.00
48204;BME280;33994;50.998;5.864;2023-12-20T00:25:23;101162.06;;;6.80;100.00
48204;BME280;33994;50.998;5.864;2023-12-20T00:28:26;101174.16;;;6.78;100.00
48204;BME280;33994;50.998;5.864;2023-12-20T00:31:30;101192.28;;;6.66;100.00
48204;BME280;33994;50.998;5.864;2023-12-20T00:34:33;101187.06;;;6.60;100.00
48204;BME280;33994;50.998;5.864;2023-12-20T00:37:38;101189.63;;;6.56;100.00
48204;BME280;33994;50.998;5.864;2023-12-20T00:40:41;101193.03;;;6.51;100.00
48204;BME280;33994;50.998;5.864;2023-12-20T00:43:45;101200.81;;;6.45;100.00
48204;BME280;33994;50.998;5.864;2023-12-20T00:46:48;101203.34;;;6.39;100.00
48204;BME280;33994;50.998;5.864;2023-12-20T00:49:51;101193.78;;;6.33;100.00
48204;BME280;33994;50.998;5.864;2023-12-20T00:52:56;101197.22;;;6.29;100.00
48204;BME280;33994;50.998;5.864;2023-12-20T00:55:59;101195.41;;;6.25;100.00
48204;BME280;33994;50.998;5.864;2023-12-20T00:59:02;101206.63;;;6.18;100.00
48204;BME280;33994;50.998;5.864;2023-12-20T01:02:05;101219.56;;;6.12;100.00
48204;BME280;33994;50.998;5.864;2023-12-20T01:05:08;101211.72;;;6.08;100.00
48204;BME280;33994;50.998;5.864;2023-12-20T01:08:13;101209.09;;;6.05;100.00
48204;BME280;33994;50.998;5.864;2023-12-20T01:11:16;101209.09;;;6.02;100.00
48204;BME280;33994;50.998;5.864;2023-12-20T01:14:19;101201.28;;;5.99;100.00
48204;BME280;33994;50.998;5.864;2023-12-20T01:17:23;101194.34;;;6.00;100.00
48204;BME280;33994;50.998;5.864;2023-12-20T01:20:26;101191.75;;;5.98;100.00
48204;BME280;33994;50.998;5.864;2023-12-20T01:23:30;101188.22;;;5.93;100.00
48204;BME280;33994;50.998;5.864;2023-12-20T01:26:34;101183.88;;;5.92;100.00
48204;BME280;33994;50.998;5.864;2023-12-20T01:29:37;101185.56;;;5.89;100.00
48204;BME280;33994;50.998;5.864;2023-12-20T01:32:40;101194.22;;;5.88;100.00
48204;BME280;33994;50.998;5.864;2023-12-20T01:35:43;101192.47;;;5.85;100.00
48204;BME280;33994;50.998;5.864;2023-12-20T01:38:48;101193.31;;;5.84;100.00
48204;BME280;33994;50.998;5.864;2023-12-20T01:41:51;101192.44;;;5.82;100.00
48204;BME280;33994;50.998;5.864;2023-12-20T01:44:54;101201.06;;;5.81;100.00
48204;BME280;33994;50.998;5.864;2023-12-20T01:47:58;101190.66;;;5.76;100.00
48204;BME280;33994;50.998;5.864;2023-12-20T01:51:02;101194.97;;;5.76;100.00
48204;BME280;33994;50.998;5.864;2023-12-20T01:54:07;101194.06;;;5.72;100.00
48204;BME280;33994;50.998;5.864;2023-12-20T01:57:10;101198.41;;;5.72;100.00
48204;BME280;33994;50.998;5.864;2023-12-20T02:00:14;101209.59;;;5.69;100.00
48204;BME280;33994;50.998;5.864;2023-12-20T02:03:18;101206.13;;;5.69;100.00
48204;BME280;33994;50.998;5.864;2023-12-20T02:06:21;101207.84;;;5.67;100.00
48204;BME280;33994;50.998;5.864;2023-12-20T02:09:28;101210.44;;;5.67;100.00
48204;BME280;33994;50.998;5.864;2023-12-20T02:12:32;101201.78;;;5.65;100.00
48204;BME280;33994;50.998;5.864;2023-12-20T02:15:35;101199.13;;;5.63;100.00
48204;BME280;33994;50.998;5.864;2023-12-20T02:18:39;101207.78;;;5.61;100.00
48204;BME280;33994;50.998;5.864;2023-12-20T02:21:43;101214.66;;;5.60;100.00
48204;BME280;33994;50.998;5.864;2023-12-20T02:24:46;101213.84;;;5.61;100.00
48204;BME280;33994;50.998;5.864;2023-12-20T02:27:50;101221.59;;;5.59;100.00
48204;BME280;33994;50.998;5.864;2023-12-20T02:30:53;101220.72;;;5.57;100.00
48204;BME280;33994;50.998;5.864;2023-12-20T02:33:57;101218.09;;;5.56;100.00
48204;BME280;33994;50.998;5.864;2023-12-20T02:37:01;101215.47;;;5.54;100.00
48204;BME280;33994;50.998;5.864;2023-12-20T02:40:06;101215.47;;;5.53;100.00
48204;BME280;33994;50.998;5.864;2023-12-20T02:43:09;101218.03;;;5.51;100.00
48204;BME280;33994;50.998;5.864;2023-12-20T02:46:14;101205.06;;;5.51;100.00
48204;BME280;33994;50.998;5.864;2023-12-20T02:49:18;101211.97;;;5.52;100.00
48204;BME280;33994;50.998;5.864;2023-12-20T02:52:23;101208.50;;;5.50;100.00
48204;BME280;33994;50.998;5.864;2023-12-20T02:55:27;101222.34;;;5.52;100.00
48204;BME280;33994;50.998;5.864;2023-12-20T02:58:30;101229.28;;;5.50;100.00
48204;BME280;33994;50.998;5.864;2023-12-20T03:01:33;101227.50;;;5.48;100.00
48204;BME280;33994;50.998;5.864;2023-12-20T03:04:36;101221.41;;;5.44;100.00
48204;BME280;33994;50.998;5.864;2023-12-20T03:07:41;101223.13;;;5.44;100.00
48204;BME280;33994;50.998;5.864;2023-12-20T03:10:44;101210.19;;;5.45;100.00
48204;BME280;33994;50.998;5.864;2023-12-20T03:13:47;101208.44;;;5.44;100.00
48204;BME280;33994;50.998;5.864;2023-12-20T03:16:50;101197.19;;;5.44;100.00
48204;BME280;33994;50.998;5.864;2023-12-20T03:19:53;101206.69;;;5.42;100.00
48204;BME280;33994;50.998;5.864;2023-12-20T03:22:58;101219.66;;;5.42;100.00
48204;BME280;33994;50.998;5.864;2023-12-20T03:26:01;101230.84;;;5.38;100.00
48204;BME280;33994;50.998;5.864;2023-12-20T03:29:04;101219.56;;;5.35;100.00
48204;BME280;33994;50.998;5.864;2023-12-20T03:32:07;101209.19;;;5.34;100.00
48204;BME280;33994;50.998;5.864;2023-12-20T03:35:11;101216.13;;;5.35;100.00
48204;BME280;33994;50.998;5.864;2023-12-20T03:38:16;101210.91;;;5.33;100.00
48204;BME280;33994;50.998;5.864;2023-12-20T03:41:19;101209.16;;;5.32;100.00
48204;BME280;33994;50.998;5.864;2023-12-20T03:44:22;101209.97;;;5.28;100.00
48204;BME280;33994;50.998;5.864;2023-12-20T03:47:25;101210.81;;;5.27;100.00
48204;BME280;33994;50.998;5.864;2023-12-20T03:50:29;101212.50;;;5.25;100.00
48204;BME280;33994;50.998;5.864;2023-12-20T03:53:33;101209.91;;;5.24;100.00
48204;BME280;33994;50.998;5.864;2023-12-20T03:58:58;101203.00;;;5.23;100.00
48204;BME280;33994;50.998;5.864;2023-12-20T04:02:01;101193.44;;;5.19;100.00
48204;BME280;33994;50.998;5.864;2023-12-20T04:05:05;101192.47;;;5.10;100.00
48204;BME280;33994;50.998;5.864;2023-12-20T04:08:09;101192.41;;;5.07;100.00
48204;BME280;33994;50.998;5.864;2023-12-20T04:11:12;101194.97;;;5.04;100.00
48204;BME280;33994;50.998;5.864;2023-12-20T04:14:17;101207.00;;;5.01;100.00
48204;BME280;33994;50.998;5.864;2023-12-20T04:17:20;101206.16;;;5.00;100.00
48204;BME280;33994;50.998;5.864;2023-12-20T04:20:23;101201.78;;;4.98;100.00
48204;BME280;33994;50.998;5.864;2023-12-20T04:23:26;101201.78;;;4.96;100.00
48204;BME280;33994;50.998;5.864;2023-12-20T04:26:30;101199.19;;;4.96;100.00
48204;BME280;33994;50.998;5.864;2023-12-20T04:29:34;101186.19;;;4.95;100.00
48204;BME280;33994;50.998;5.864;2023-12-20T04:32:37;101194.81;;;4.94;100.00
48204;BME280;33994;50.998;5.864;2023-12-20T04:35:41;101210.38;;;4.95;100.00
48204;BME280;33994;50.998;5.864;2023-12-20T04:38:45;101213.81;;;4.94;100.00
48204;BME280;33994;50.998;5.864;2023-12-20T04:41:48;101213.81;;;4.94;100.00
48204;BME280;33994;50.998;5.864;2023-12-20T04:44:53;101219.06;;;4.96;100.00
48204;BME280;33994;50.998;5.864;2023-12-20T04:47:56;101219.97;;;4.99;100.00
48204;BME280;33994;50.998;5.864;2023-12-20T04:50:59;101203.50;;;4.99;100.00
48204;BME280;33994;50.998;5.864;2023-12-20T04:54:02;101207.84;;;4.98;100.00
48204;BME280;33994;50.998;5.864;2023-12-20T04:57:05;101214.75;;;4.98;100.00
48204;BME280;33994;50.998;5.864;2023-12-20T05:00:11;101216.50;;;5.00;100.00
48204;BME280;33994;50.998;5.864;2023-12-20T05:03:14;101215.72;;;5.04;100.00
48204;BME280;33994;50.998;5.864;2023-12-20T05:06:17;101206.22;;;5.06;100.00
48204;BME280;33994;50.998;5.864;2023-12-20T05:09:21;101224.41;;;5.08;100.00
48204;BME280;33994;50.998;5.864;2023-12-20T05:12:24;101213.16;;;5.07;100.00
48204;BME280;33994;50.998;5.864;2023-12-20T05:15:28;101222.72;;;5.12;100.00
48204;BME280;33994;50.998;5.864;2023-12-20T05:18:31;101211.50;;;5.13;100.00
48204;BME280;33994;50.998;5.864;2023-12-20T05:21:35;101208.03;;;5.14;100.00
48204;BME280;33994;50.998;5.864;2023-12-20T05:24:38;101201.13;;;5.13;100.00
48204;BME280;33994;50.998;5.864;2023-12-20T05:27:41;101200.25;;;5.14;100.00
48204;BME280;33994;50.998;5.864;2023-12-20T05:30:46;101198.59;;;5.17;100.00
48204;BME280;33994;50.998;5.864;2023-12-20T05:33:49;101198.56;;;5.16;100.00
48204;BME280;33994;50.998;5.864;2023-12-20T05:36:53;101202.91;;;5.17;100.00
48204;BME280;33994;50.998;5.864;2023-12-20T05:39:56;101211.53;;;5.16;100.00
48204;BME280;33994;50.998;5.864;2023-12-20T05:43:00;101205.50;;;5.15;100.00
48204;BME280;33994;50.998;5.864;2023-12-20T05:46:04;101203.72;;;5.14;100.00
48204;BME280;33994;50.998;5.864;2023-12-20T05:49:07;101206.34;;;5.16;100.00
48204;BME280;33994;50.998;5.864;2023-12-20T05:52:11;101206.31;;;5.13;100.00
48204;BME280;33994;50.998;5.864;2023-12-20T05:55:14;101198.53;;;5.11;100.00
48204;BME280;33994;50.998;5.864;2023-12-20T05:58:17;101209.75;;;5.13;100.00
48204;BME280;33994;50.998;5.864;2023-12-20T06:01:22;101198.53;;;5.14;100.00
48204;BME280;33994;50.998;5.864;2023-12-20T06:04:25;101202.03;;;5.15;100.00
48204;BME280;33994;50.998;5.864;2023-12-20T06:07:28;101203.75;;;5.17;100.00
48204;BME280;33994;50.998;5.864;2023-12-20T06:10:31;101203.75;;;5.17;100.00
48204;BME280;33994;50.998;5.864;2023-12-20T06:13:34;101213.31;;;5.18;100.00
48204;BME280;33994;50.998;5.864;2023-12-20T06:16:39;101220.19;;;5.18;100.00
48204;BME280;33994;50.998;5.864;2023-12-20T06:19:42;101213.31;;;5.20;100.00
48204;BME280;33994;50.998;5.864;2023-12-20T06:22:45;101219.31;;;5.17;100.00
48204;BME280;33994;50.998;5.864;2023-12-20T06:25:48;101223.59;;;5.14;100.00
48204;BME280;33994;50.998;5.864;2023-12-20T06:28:51;101241.75;;;5.14;100.00
48204;BME280;33994;50.998;5.864;2023-12-20T06:31:56;101234.81;;;5.13;100.00
48204;BME280;33994;50.998;5.864;2023-12-20T06:34:59;101235.69;;;5.12;100.00
48204;BME280;33994;50.998;5.864;2023-12-20T06:38:02;101223.59;;;5.10;100.00
48204;BME280;33994;50.998;5.864;2023-12-20T06:41:05;101223.59;;;5.10;100.00
48204;BME280;33994;50.998;5.864;2023-12-20T06:44:09;101232.19;;;5.09;100.00
48204;BME280;33994;50.998;5.864;2023-12-20T06:47:13;101242.50;;;5.06;100.00
48204;BME280;33994;50.998;5.864;2023-12-20T06:50:16;101250.25;;;5.03;100.00
48204;BME280;33994;50.998;5.864;2023-12-20T06:53:19;101249.41;;;5.03;100.00
48204;BME280;33994;50.998;5.864;2023-12-20T06:56:23;101242.44;;;5.02;100.00
48204;BME280;33994;50.998;5.864;2023-12-20T06:59:26;101236.38;;;5.00;100.00
48204;BME280;33994;50.998;5.864;2023-12-20T07:02:31;101238.00;;;4.93;100.00
48204;BME280;33994;50.998;5.864;2023-12-20T07:05:34;101231.09;;;4.94;100.00
48204;BME280;33994;50.998;5.864;2023-12-20T07:08:37;101231.97;;;4.93;100.00
48204;BME280;33994;50.998;5.864;2023-12-20T07:11:40;101237.97;;;4.92;100.00
48204;BME280;33994;50.998;5.864;2023-12-20T07:14:43;101223.22;;;4.89;100.00
48204;BME280;33994;50.998;5.864;2023-12-20T07:17:47;101231.81;;;4.85;100.00
48204;BME280;33994;50.998;5.864;2023-12-20T07:20:51;101224.84;;;4.81;100.00
48204;BME280;33994;50.998;5.864;2023-12-20T07:23:54;101225.66;;;4.78;100.00
48204;BME280;33994;50.998;5.864;2023-12-20T07:26:57;101223.06;;;4.77;100.00
48204;BME280;33994;50.998;5.864;2023-12-20T07:30:00;101214.41;;;4.76;100.00
48204;BME280;33994;50.998;5.864;2023-12-20T07:33:05;101219.53;;;4.73;100.00
48204;BME280;33994;50.998;5.864;2023-12-20T07:36:08;101214.38;;;4.73;100.00
48204;BME280;33994;50.998;5.864;2023-12-20T07:39:11;101213.50;;;4.73;100.00
48204;BME280;33994;50.998;5.864;2023-12-20T07:42:15;101219.50;;;4.72;100.00
48204;BME280;33994;50.998;5.864;2023-12-20T07:45:18;101216.09;;;4.73;100.00
48204;BME280;33994;50.998;5.864;2023-12-20T07:48:22;101226.44;;;4.73;100.00
48204;BME280;33994;50.998;5.864;2023-12-20T07:51:25;101225.59;;;4.74;100.00
48204;BME280;33994;50.998;5.864;2023-12-20T07:54:28;101229.06;;;4.74;100.00
48204;BME280;33994;50.998;5.864;2023-12-20T07:57:32;101225.59;;;4.74;100.00
48204;BME280;33994;50.998;5.864;2023-12-20T08:00:35;101227.31;;;4.75;100.00
48204;BME280;33994;50.998;5.864;2023-12-20T08:03:39;101221.28;;;4.73;100.00
48204;BME280;33994;50.998;5.864;2023-12-20T08:06:43;101223.00;;;4.74;100.00
48204;BME280;33994;50.998;5.864;2023-12-20T08:09:46;101215.22;;;4.74;100.00
48204;BME280;33994;50.998;5.864;2023-12-20T08:12:49;101206.59;;;4.75;100.00
48204;BME280;33994;50.998;5.864;2023-12-20T08:15:52;101210.91;;;4.76;100.00
48204;BME280;33994;50.998;5.864;2023-12-20T08:18:57;101216.09;;;4.76;100.00
48204;BME280;33994;50.998;5.864;2023-12-20T08:22:00;101210.06;;;4.75;100.00
48204;BME280;33994;50.998;5.864;2023-12-20T08:25:04;101215.25;;;4.75;100.00
48204;BME280;33994;50.998;5.864;2023-12-20T08:28:07;101229.06;;;4.74;100.00
48204;BME280;33994;50.998;5.864;2023-12-20T08:31:13;101233.38;;;4.74;100.00
48204;BME280;33994;50.998;5.864;2023-12-20T08:34:18;101233.38;;;4.74;100.00
48204;BME280;33994;50.998;5.864;2023-12-20T08:37:21;101240.28;;;4.73;100.00
48204;BME280;33994;50.998;5.864;2023-12-20T08:40:24;101237.69;;;4.75;100.00
48204;BME280;33994;50.998;5.864;2023-12-20T08:43:27;101227.38;;;4.76;100.00
48204;BME280;33994;50.998;5.864;2023-12-20T08:46:31;101229.13;;;4.79;100.00
48204;BME280;33994;50.998;5.864;2023-12-20T08:49:35;101233.38;;;4.75;100.00
48204;BME280;33994;50.998;5.864;2023-12-20T08:52:38;101232.56;;;4.79;100.00
48204;BME280;33994;50.998;5.864;2023-12-20T08:55:41;101239.53;;;4.82;100.00
48204;BME280;33994;50.998;5.864;2023-12-20T08:58:45;101241.25;;;4.81;100.00
48204;BME280;33994;50.998;5.864;2023-12-20T09:01:48;101242.13;;;4.82;100.00
48204;BME280;33994;50.998;5.864;2023-12-20T09:04:53;101241.28;;;4.83;100.00
48204;BME280;33994;50.998;5.864;2023-12-20T09:07:56;101231.81;;;4.85;100.00
48204;BME280;33994;50.998;5.864;2023-12-20T09:10:59;101232.72;;;4.89;100.00
48204;BME280;33994;50.998;5.864;2023-12-20T09:14:03;101219.72;;;4.87;100.00
48204;BME280;33994;50.998;5.864;2023-12-20T09:17:06;101214.53;;;4.87;100.00
48204;BME280;33994;50.998;5.864;2023-12-20T09:20:11;101218.03;;;4.89;100.00
48204;BME280;33994;50.998;5.864;2023-12-20T09:23:13;101204.22;;;4.89;100.00
48204;BME280;33994;50.998;5.864;2023-12-20T09:26:17;101199.03;;;4.90;100.00
48204;BME280;33994;50.998;5.864;2023-12-20T09:29:20;101213.75;;;4.91;100.00
48204;BME280;33994;50.998;5.864;2023-12-20T09:32:23;101200.84;;;4.93;100.00
48204;BME280;33994;50.998;5.864;2023-12-20T09:35:27;101200.88;;;4.94;100.00
48204;BME280;33994;50.998;5.864;2023-12-20T09:38:30;101204.38;;;4.96;100.00
48204;BME280;33994;50.998;5.864;2023-12-20T09:41:37;101213.06;;;5.00;100.00
48204;BME280;33994;50.998;5.864;2023-12-20T09:44:43;101219.13;;;5.02;100.00
48204;BME280;33994;50.998;5.864;2023-12-20T09:47:47;101225.16;;;5.02;100.00
48204;BME280;33994;50.998;5.864;2023-12-20T09:50:52;101221.78;;;5.06;100.00
48204;BME280;33994;50.998;5.864;2023-12-20T09:53:56;101216.63;;;5.09;100.00
48204;BME280;33994;50.998;5.864;2023-12-20T09:57:00;101217.53;;;5.13;100.00
48204;BME280;33994;50.998;5.864;2023-12-20T10:00:04;101234.06;;;5.20;100.00
48204;BME280;33994;50.998;5.864;2023-12-20T10:03:08;101223.75;;;5.23;100.00
48204;BME280;33994;50.998;5.864;2023-12-20T10:06:13;101208.22;;;5.26;100.00
48204;BME280;33994;50.998;5.864;2023-12-20T10:09:16;101209.09;;;5.26;100.00
48204;BME280;33994;50.998;5.864;2023-12-20T10:12:19;101206.50;;;5.28;100.00
48204;BME280;33994;50.998;5.864;2023-12-20T10:15:22;101209.16;;;5.31;100.00
48204;BME280;33994;50.998;5.864;2023-12-20T10:18:25;101193.63;;;5.35;100.00
48204;BME280;33994;50.998;5.864;2023-12-20T10:21:32;101188.50;;;5.39;100.00
48204;BME280;33994;50.998;5.864;2023-12-20T10:24:36;101206.69;;;5.42;100.00
48204;BME280;33994;50.998;5.864;2023-12-20T10:27:39;101195.50;;;5.46;100.00
48204;BME280;33994;50.998;5.864;2023-12-20T10:30:42;101211.97;;;5.49;100.00
48204;BME280;33994;50.998;5.864;2023-12-20T10:33:45;101201.63;;;5.54;100.00
48204;BME280;33994;50.998;5.864;2023-12-20T10:36:51;101206.84;;;5.55;100.00
48204;BME280;33994;50.998;5.864;2023-12-20T10:39:55;101193.03;;;5.59;100.00
48204;BME280;33994;50.998;5.864;2023-12-20T10:42:58;101188.78;;;5.65;100.00
48204;BME280;33994;50.998;5.864;2023-12-20T10:46:03;101194.00;;;5.66;100.00
48204;BME280;33994;50.998;5.864;2023-12-20T10:49:07;101191.44;;;5.69;100.00
48204;BME280;33994;50.998;5.864;2023-12-20T10:52:12;101180.22;;;5.72;100.00
48204;BME280;33994;50.998;5.864;2023-12-20T10:55:16;101179.41;;;5.76;100.00
48204;BME280;33994;50.998;5.864;2023-12-20T10:58:20;101182.91;;;5.82;100.00
48204;BME280;33994;50.998;5.864;2023-12-20T11:01:23;101177.78;;;5.87;100.00
48204;BME280;33994;50.998;5.864;2023-12-20T11:04:34;101174.38;;;5.91;100.00
48204;BME280;33994;50.998;5.864;2023-12-20T11:07:43;101171.78;;;5.94;100.00
48204;BME280;33994;50.998;5.864;2023-12-20T11:10:51;101169.25;;;5.99;100.00
48204;BME280;33994;50.998;5.864;2023-12-20T11:14:01;101169.28;;;6.03;100.00
48204;BME280;33994;50.998;5.864;2023-12-20T11:17:07;101166.69;;;6.05;100.00
48204;BME280;33994;50.998;5.864;2023-12-20T11:20:10;101174.50;;;6.06;100.00
48204;BME280;33994;50.998;5.864;2023-12-20T11:23:15;101167.59;;;6.08;100.00
48204;BME280;33994;50.998;5.864;2023-12-20T11:26:22;101163.28;;;6.11;100.00
48204;BME280;33994;50.998;5.864;2023-12-20T11:29:30;101157.22;;;6.13;100.00
48204;BME280;33994;50.998;5.864;2023-12-20T11:32:34;101153.81;;;6.16;100.00
48204;BME280;33994;50.998;5.864;2023-12-20T11:35:39;101157.25;;;6.15;100.00
48204;BME280;33994;50.998;5.864;2023-12-20T11:38:54;101154.69;;;6.18;100.00
48204;BME280;33994;50.998;5.864;2023-12-20T11:42:04;101146.91;;;6.21;100.00
48204;BME280;33994;50.998;5.864;2023-12-20T11:45:09;101143.47;;;6.25;100.00
48204;BME280;33994;50.998;5.864;2023-12-20T11:48:13;101152.16;;;6.27;100.00
48204;BME280;33994;50.998;5.864;2023-12-20T11:51:16;101147.00;;;6.30;100.00
48204;BME280;33994;50.998;5.864;2023-12-20T11:54:21;101141.81;;;6.30;100.00
48204;BME280;33994;50.998;5.864;2023-12-20T11:57:25;101143.53;;;6.31;100.00
48204;BME280;33994;50.998;5.864;2023-12-20T12:00:28;101140.06;;;6.32;100.00
48204;BME280;33994;50.998;5.864;2023-12-20T12:03:32;101134.03;;;6.33;100.00
48204;BME280;33994;50.998;5.864;2023-12-20T12:06:35;101137.47;;;6.32;100.00
48204;BME280;33994;50.998;5.864;2023-12-20T12:09:39;101133.16;;;6.31;100.00
48204;BME280;33994;50.998;5.864;2023-12-20T12:12:42;101132.28;;;6.32;100.00
48204;BME280;33994;50.998;5.864;2023-12-20T12:15:45;101116.69;;;6.32;100.00
48204;BME280;33994;50.998;5.864;2023-12-20T12:18:55;101118.44;;;6.33;100.00
48204;BME280;33994;50.998;5.864;2023-12-20T12:22:05;101115.84;;;6.33;100.00
48204;BME280;33994;50.998;5.864;2023-12-20T12:25:12;101102.88;;;6.35;100.00
48204;BME280;33994;50.998;5.864;2023-12-20T12:28:15;101108.06;;;6.33;100.00
48204;BME280;33994;50.998;5.864;2023-12-20T12:31:18;101112.38;;;6.34;100.00
48204;BME280;33994;50.998;5.864;2023-12-20T12:34:22;101100.25;;;6.33;100.00
48204;BME280;33994;50.998;5.864;2023-12-20T12:37:25;101095.06;;;6.35;100.00
48204;BME280;33994;50.998;5.864;2023-12-20T12:40:29;101096.81;;;6.34;100.00
48204;BME280;33994;50.998;5.864;2023-12-20T12:43:32;101101.13;;;6.33;100.00
48204;BME280;33994;50.998;5.864;2023-12-20T12:46:36;101098.53;;;6.35;100.00
48204;BME280;33994;50.998;5.864;2023-12-20T12:49:40;101088.97;;;6.32;100.00
48204;BME280;33994;50.998;5.864;2023-12-20T12:52:43;101095.91;;;6.29;100.00
48204;BME280;33994;50.998;5.864;2023-12-20T12:55:48;101103.69;;;6.32;100.00
48204;BME280;33994;50.998;5.864;2023-12-20T12:58:51;101099.44;;;6.37;100.00
48204;BME280;33994;50.998;5.864;2023-12-20T13:01:54;101100.28;;;6.38;100.00
48204;BME280;33994;50.998;5.864;2023-12-20T13:04:57;101096.81;;;6.39;100.00
48204;BME280;33994;50.998;5.864;2023-12-20T13:08:00;101088.16;;;6.40;100.00
48204;BME280;33994;50.998;5.864;2023-12-20T13:11:05;101080.41;;;6.43;100.00
48204;BME280;33994;50.998;5.864;2023-12-20T13:14:08;101074.34;;;6.42;100.00
48204;BME280;33994;50.998;5.864;2023-12-20T13:17:11;101068.28;;;6.45;100.00
48204;BME280;33994;50.998;5.864;2023-12-20T13:20:14;101064.00;;;6.48;100.00
48204;BME280;33994;50.998;5.864;2023-12-20T13:23:17;101055.31;;;6.49;100.00
48204;BME280;33994;50.998;5.864;2023-12-20T13:26:22;101050.13;;;6.49;100.00
48204;BME280;33994;50.998;5.864;2023-12-20T13:29:25;101051.84;;;6.50;100.00
48204;BME280;33994;50.998;5.864;2023-12-20T13:32:28;101055.34;;;6.52;100.00
48204;BME280;33994;50.998;5.864;2023-12-20T13:35:31;101046.69;;;6.53;100.00
48204;BME280;33994;50.998;5.864;2023-12-20T13:38:35;101038.03;;;6.57;100.00
48204;BME280;33994;50.998;5.864;2023-12-20T13:41:39;101034.56;;;6.58;100.00
48204;BME280;33994;50.998;5.864;2023-12-20T13:44:42;101031.09;;;6.56;100.00
48204;BME280;33994;50.998;5.864;2023-12-20T13:47:46;101024.16;;;6.58;100.00
48204;BME280;33994;50.998;5.864;2023-12-20T13:50:49;101011.22;;;6.60;100.00
48204;BME280;33994;50.998;5.864;2023-12-20T13:53:52;100997.34;;;6.60;100.00
48204;BME280;33994;50.998;5.864;2023-12-20T13:56:56;100996.47;;;6.61;100.00
48204;BME280;33994;50.998;5.864;2023-12-20T14:00:00;100985.22;;;6.60;100.00
48204;BME280;33994;50.998;5.864;2023-12-20T14:03:03;100972.22;;;6.62;100.00
48204;BME280;33994;50.998;5.864;2023-12-20T14:06:07;100982.63;;;6.65;100.00
48204;BME280;33994;50.998;5.864;2023-12-20T14:09:10;100969.63;;;6.63;100.00
48204;BME280;33994;50.998;5.864;2023-12-20T14:12:15;100980.91;;;6.64;100.00
48204;BME280;33994;50.998;5.864;2023-12-20T14:15:18;100989.53;;;6.63;100.00
48204;BME280;33994;50.998;5.864;2023-12-20T14:18:21;100990.41;;;6.62;100.00
48204;BME280;33994;50.998;5.864;2023-12-20T14:21:24;100979.13;;;6.63;100.00
48204;BME280;33994;50.998;5.864;2023-12-20T14:24:27;100982.59;;;6.62;100.00
48204;BME280;33994;50.998;5.864;2023-12-20T14:27:32;100990.44;;;6.63;100.00
48204;BME280;33994;50.998;5.864;2023-12-20T14:30:35;100986.94;;;6.63;100.00
48204;BME280;33994;50.998;5.864;2023-12-20T14:33:38;100990.41;;;6.62;100.00
48204;BME280;33994;50.998;5.864;2023-12-20T14:36:42;100987.81;;;6.65;100.00
48204;BME280;33994;50.998;5.864;2023-12-20T14:39:44;100986.97;;;6.64;100.00
48204;BME280;33994;50.998;5.864;2023-12-20T14:42:49;100980.03;;;6.65;100.00
48204;BME280;33994;50.998;5.864;2023-12-20T14:45:52;100983.47;;;6.67;100.00
48204;BME280;33994;50.998;5.864;2023-12-20T14:48:55;100990.41;;;6.66;100.00
48204;BME280;33994;50.998;5.864;2023-12-20T14:51:59;100991.28;;;6.67;100.00
48204;BME280;33994;50.998;5.864;2023-12-20T14:55:02;100990.44;;;6.65;100.00
48204;BME280;33994;50.998;5.864;2023-12-20T14:58:06;100980.03;;;6.65;100.00
48204;BME280;33994;50.998;5.864;2023-12-20T15:01:09;100980.91;;;6.65;100.00
48204;BME280;33994;50.998;5.864;2023-12-20T15:04:13;100977.44;;;6.65;100.00
48204;BME280;33994;50.998;5.864;2023-12-20T15:07:16;100984.34;;;6.66;100.00
48204;BME280;33994;50.998;5.864;2023-12-20T15:10:20;100974.00;;;6.67;100.00
48204;BME280;33994;50.998;5.864;2023-12-20T15:13:24;100973.09;;;6.67;100.00
48204;BME280;33994;50.998;5.864;2023-12-20T15:16:27;100979.16;;;6.66;100.00
48204;BME280;33994;50.998;5.864;2023-12-20T15:19:31;100979.16;;;6.66;100.00
48204;BME280;33994;50.998;5.864;2023-12-20T15:22:34;100988.69;;;6.65;100.00
48204;BME280;33994;50.998;5.864;2023-12-20T15:25:37;100980.91;;;6.65;100.00
48204;BME280;33994;50.998;5.864;2023-12-20T15:28:41;100986.09;;;6.67;100.00
48204;BME280;33994;50.998;5.864;2023-12-20T15:31:47;100985.22;;;6.66;100.00
48204;BME280;33994;50.998;5.864;2023-12-20T15:34:50;100982.63;;;6.66;100.00
48204;BME280;33994;50.998;5.864;2023-12-20T15:37:54;100986.97;;;6.67;100.00
48204;BME280;33994;50.998;5.864;2023-12-20T15:40:56;100975.69;;;6.67;100.00
48204;BME280;33994;50.998;5.864;2023-12-20T15:44:01;100980.03;;;6.66;100.00
48204;BME280;33994;50.998;5.864;2023-12-20T15:47:04;100973.09;;;6.67;100.00
48204;BME280;33994;50.998;5.864;2023-12-20T15:50:08;100967.88;;;6.67;100.00
48204;BME280;33994;50.998;5.864;2023-12-20T15:53:11;100954.03;;;6.66;100.00
48204;BME280;33994;50.998;5.864;2023-12-20T15:56:14;100954.91;;;6.65;100.00
48204;BME280;33994;50.998;5.864;2023-12-20T15:59:19;100954.03;;;6.65;100.00
48204;BME280;33994;50.998;5.864;2023-12-20T16:02:22;100954.03;;;6.65;100.00